createdAt,value
2022-09-27T00:00:23.863Z,1002.0
2022-09-27T00:15:23.886Z,1001.5
2022-09-27T00:30:26.682Z,1001.0
2022-09-27T00:45:33.778Z,1001.0
2022-09-27T01:00:36.324Z,1001.0
2022-09-27T01:15:23.359Z,1001.0
2022-09-27T01:30:24.105Z,1001.0
2022-09-27T01:45:23.621Z,1001.0
2022-09-27T02:00:25.390Z,1001.0
2022-09-27T02:15:23.694Z,1001.0
2022-09-27T02:30:22.932Z,1001.0
2022-09-27T02:45:23.022Z,1001.0
2022-09-27T03:00:31.805Z,1001.7
2022-09-27T03:15:23.686Z,1002.0
2022-09-27T03:30:23.050Z,1002.0
2022-09-27T03:45:23.308Z,1002.0
2022-09-27T04:00:25.373Z,1002.0
2022-09-27T04:15:23.400Z,1002.0
2022-09-27T04:30:23.829Z,1002.0
2022-09-27T04:45:23.179Z,1002.0
2022-09-27T05:00:29.920Z,1002.3
2022-09-27T05:15:23.809Z,1003.0
2022-09-27T05:30:24.287Z,1003.0
2022-09-27T05:45:24.044Z,1003.0
2022-09-27T06:00:23.651Z,1003.0
2022-09-27T06:15:23.879Z,1003.0
2022-09-27T06:30:23.330Z,1004.0
2022-09-27T06:45:23.721Z,1004.0
2022-09-27T07:00:38.458Z,1004.0
2022-09-27T07:15:23.391Z,1004.0
2022-09-27T07:30:25.412Z,1004.0
2022-09-27T07:45:23.701Z,1004.3
2022-09-27T08:00:23.560Z,1005.0
2022-09-27T08:15:23.735Z,1005.0
2022-09-27T08:30:24.127Z,1005.0
2022-09-27T08:45:23.978Z,1005.0
2022-09-27T09:00:26.516Z,1005.0
2022-09-27T09:15:23.911Z,1005.0
2022-09-27T09:30:24.148Z,1005.0
2022-09-27T09:45:24.294Z,1005.0
2022-09-27T10:00:36.603Z,1005.0
2022-09-27T10:15:25.117Z,1005.0
2022-09-27T10:30:32.922Z,1005.0
2022-09-27T10:45:32.985Z,1005.0
2022-09-27T11:00:37.317Z,1004.7
2022-09-27T11:15:23.044Z,1004.0
2022-09-27T11:30:23.165Z,1004.0
2022-09-27T11:45:41.143Z,1004.0
2022-09-27T12:00:23.330Z,1004.0
2022-09-27T12:15:25.453Z,1004.0
2022-09-27T12:30:42.007Z,1004.0
2022-09-27T12:45:23.222Z,1004.0
2022-09-27T13:00:23.294Z,1004.0
2022-09-27T13:15:23.520Z,1004.0
2022-09-27T13:30:23.801Z,1004.0
2022-09-27T14:05:40.409Z,1004.0
2022-09-27T14:15:32.809Z,1004.0
2022-09-27T14:30:32.998Z,1004.0
2022-09-27T14:45:33.325Z,1004.0
2022-09-27T15:00:48.305Z,1004.0
2022-09-27T15:15:23.106Z,1004.0
2022-09-27T15:30:30.084Z,1004.0
2022-09-27T15:45:23.135Z,1004.3
2022-09-27T16:00:24.660Z,1004.7
2022-09-27T16:15:23.232Z,1005.0
2022-09-27T16:30:27.072Z,1005.0
2022-09-27T16:45:23.492Z,1005.0
2022-09-27T17:00:39.696Z,1005.0
2022-09-27T17:15:23.299Z,1005.0
2022-09-27T17:30:23.584Z,1005.0
2022-09-27T17:45:24.243Z,1005.0
2022-09-27T18:00:23.555Z,1005.0
2022-09-27T18:15:23.714Z,1005.0
2022-09-27T18:30:29.386Z,1005.0
2022-09-27T18:45:23.652Z,1005.0
2022-09-27T19:00:27.288Z,1005.0
2022-09-27T19:15:23.735Z,1005.0
2022-09-27T19:30:23.741Z,1005.7
2022-09-27T19:34:33.182Z,1005.0
2022-09-27T19:49:21.696Z,1005.0
2022-09-27T20:04:24.784Z,1005.7
2022-09-27T20:15:23.146Z,1005.0
2022-09-27T20:30:25.140Z,1005.0
2022-09-27T20:45:23.038Z,1005.0
2022-09-27T21:00:27.804Z,1005.0
2022-09-27T21:15:23.386Z,1005.0
2022-09-27T21:30:23.697Z,1005.0
2022-09-27T21:45:23.743Z,1005.0
2022-09-27T22:15:23.576Z,1004.0
2022-09-27T22:30:23.506Z,1004.0
2022-09-27T22:45:23.455Z,1004.0
2022-09-27T23:00:33.048Z,1003.0
2022-09-27T23:15:23.668Z,1003.0
2022-09-27T23:30:23.569Z,1003.0
2022-09-27T23:45:23.507Z,1003.0
